createdAt,value
2023-05-14T00:00:53.567Z,9.50
2023-05-14T00:02:55.529Z,9.40
2023-05-14T00:04:57.473Z,9.30
2023-05-14T00:06:59.282Z,9.40
2023-05-14T00:09:01.115Z,9.40
2023-05-14T00:11:02.920Z,9.50
2023-05-14T00:13:04.649Z,9.40
2023-05-14T00:15:06.660Z,9.30
2023-05-14T00:17:08.580Z,9.40
2023-05-14T00:19:10.642Z,9.40
2023-05-14T00:21:12.969Z,9.40
2023-05-14T00:23:14.726Z,9.50
2023-05-14T00:25:16.460Z,9.40
2023-05-14T00:27:18.330Z,9.30
2023-05-14T00:29:20.217Z,9.30
2023-05-14T00:31:21.956Z,9.30
2023-05-14T00:33:23.745Z,9.30
2023-05-14T00:35:25.658Z,9.20
2023-05-14T00:37:27.399Z,9.50
2023-05-14T00:39:29.117Z,9.60
2023-05-14T00:41:30.932Z,9.70
2023-05-14T00:43:33.329Z,9.60
2023-05-14T00:45:35.085Z,9.40
2023-05-14T00:47:39.408Z,9.30
2023-05-14T00:49:41.612Z,9.30
2023-05-14T00:51:47.089Z,9.20
2023-05-14T00:53:49.694Z,9.00
2023-05-14T00:55:52.071Z,8.90
2023-05-14T00:57:54.769Z,9.00
2023-05-14T00:59:56.751Z,8.90
2023-05-14T01:01:58.525Z,8.90
2023-05-14T01:04:00.804Z,9.00
2023-05-14T01:06:09.933Z,9.00
2023-05-14T01:08:17.014Z,8.70
2023-05-14T01:10:27.945Z,8.60
2023-05-14T01:12:29.745Z,8.70
2023-05-14T01:14:40.369Z,8.80
2023-05-14T01:16:43.632Z,8.90
2023-05-14T01:18:46.507Z,8.90
2023-05-14T01:20:50.150Z,8.80
2023-05-14T01:22:51.929Z,8.80
2023-05-14T01:24:53.725Z,8.70
2023-05-14T01:27:01.196Z,8.70
2023-05-14T01:29:21.534Z,8.70
2023-05-14T01:31:27.989Z,8.80
2023-05-14T01:33:29.877Z,8.80
2023-05-14T01:35:31.993Z,8.80
2023-05-14T01:37:35.181Z,8.80
2023-05-14T01:39:38.063Z,8.80
2023-05-14T01:41:40.068Z,8.80
2023-05-14T01:43:42.442Z,8.80
2023-05-14T01:45:44.299Z,8.80
2023-05-14T01:47:46.193Z,8.70
2023-05-14T01:49:48.091Z,8.60
2023-05-14T01:51:49.829Z,8.50
2023-05-14T01:53:51.575Z,8.50
2023-05-14T01:55:53.342Z,8.50
2023-05-14T01:57:55.109Z,8.40
2023-05-14T01:59:56.902Z,8.50
2023-05-14T02:01:58.864Z,8.50
2023-05-14T02:04:01.231Z,8.60
2023-05-14T02:06:03.090Z,8.70
2023-05-14T02:08:04.970Z,8.70
2023-05-14T02:10:07.163Z,8.60
2023-05-14T02:12:09.448Z,8.60
2023-05-14T02:14:11.606Z,8.70
2023-05-14T02:16:13.388Z,8.60
2023-05-14T02:18:15.140Z,8.60
2023-05-14T02:20:17.019Z,8.60
2023-05-14T02:22:18.770Z,8.70
2023-05-14T02:24:20.562Z,8.60
2023-05-14T02:26:22.386Z,8.60
2023-05-14T02:28:24.127Z,8.70
2023-05-14T02:30:26.020Z,8.80
2023-05-14T02:32:28.394Z,8.70
2023-05-14T02:34:30.515Z,8.60
2023-05-14T02:36:32.504Z,8.60
2023-05-14T02:38:34.363Z,8.40
2023-05-14T02:40:36.868Z,8.50
2023-05-14T02:42:38.629Z,8.40
2023-05-14T02:44:40.668Z,8.30
2023-05-14T02:46:43.000Z,8.40
2023-05-14T02:48:44.737Z,8.70
2023-05-14T02:50:47.044Z,9.00
2023-05-14T02:52:48.773Z,9.00
2023-05-14T02:54:50.534Z,8.90
2023-05-14T02:56:52.325Z,9.00
2023-05-14T02:58:54.066Z,9.10
2023-05-14T03:00:56.569Z,9.40
2023-05-14T03:02:58.915Z,9.40
2023-05-14T03:05:01.107Z,9.40
2023-05-14T03:07:03.170Z,9.50
2023-05-14T03:09:05.006Z,9.40
2023-05-14T03:11:06.984Z,9.60
2023-05-14T03:13:08.735Z,9.60
2023-05-14T03:15:10.772Z,9.80
2023-05-14T03:17:12.597Z,9.70
2023-05-14T03:19:14.409Z,9.70
2023-05-14T03:21:16.299Z,9.70
2023-05-14T03:23:19.061Z,9.70
2023-05-14T03:25:20.811Z,9.80
2023-05-14T03:27:22.616Z,9.90
2023-05-14T03:29:24.383Z,10.00
2023-05-14T03:31:26.650Z,10.10
2023-05-14T03:33:28.541Z,10.10
2023-05-14T03:35:30.360Z,9.90
2023-05-14T03:37:32.105Z,10.00
2023-05-14T03:39:34.009Z,9.90
2023-05-14T03:41:36.177Z,9.80
2023-05-14T03:43:37.897Z,10.10
2023-05-14T03:45:39.910Z,10.30
2023-05-14T03:47:41.872Z,10.50
2023-05-14T03:49:43.680Z,10.70
2023-05-14T03:51:45.488Z,10.70
2023-05-14T03:53:47.477Z,10.90
2023-05-14T03:55:49.248Z,11.00
2023-05-14T03:57:51.146Z,11.10
2023-05-14T03:59:52.889Z,11.10
2023-05-14T04:01:54.640Z,11.20
2023-05-14T04:03:56.790Z,11.40
2023-05-14T04:05:58.862Z,11.60
2023-05-14T04:08:01.061Z,11.90
2023-05-14T04:10:04.738Z,11.90
2023-05-14T04:12:06.983Z,11.90
2023-05-14T04:14:08.713Z,12.20
2023-05-14T04:16:10.607Z,12.40
2023-05-14T04:18:12.546Z,12.40
2023-05-14T04:20:14.424Z,12.30
2023-05-14T04:22:16.228Z,12.50
2023-05-14T04:24:18.124Z,12.50
2023-05-14T04:26:19.885Z,12.50
2023-05-14T04:28:21.688Z,12.60
2023-05-14T04:30:23.562Z,12.80
2023-05-14T04:32:25.750Z,12.70
2023-05-14T04:34:27.575Z,12.90
2023-05-14T04:36:29.564Z,13.20
2023-05-14T04:38:32.068Z,13.30
2023-05-14T04:40:33.874Z,13.50
2023-05-14T04:42:35.657Z,13.40
2023-05-14T04:44:37.905Z,13.60
2023-05-14T04:46:39.700Z,13.60
2023-05-14T04:48:41.928Z,13.80
2023-05-14T04:50:44.315Z,13.90
2023-05-14T04:52:46.182Z,14.00
2023-05-14T04:54:47.996Z,14.00
2023-05-14T04:56:50.220Z,14.20
2023-05-14T04:58:52.119Z,14.40
2023-05-14T05:00:54.007Z,14.60
2023-05-14T05:02:55.931Z,14.70
2023-05-14T05:04:57.752Z,15.00
2023-05-14T05:06:59.500Z,14.80
2023-05-14T05:09:02.104Z,14.80
2023-05-14T05:11:04.468Z,14.90
2023-05-14T05:13:06.232Z,15.10
2023-05-14T05:15:09.513Z,15.20
2023-05-14T05:17:11.330Z,15.50
2023-05-14T05:19:13.203Z,15.70
2023-05-14T05:21:15.045Z,15.80
2023-05-14T05:23:16.978Z,15.90
2023-05-14T05:25:18.797Z,16.00
2023-05-14T05:27:22.068Z,16.10
2023-05-14T05:29:24.677Z,16.30
2023-05-14T05:31:26.437Z,16.50
2023-05-14T05:33:28.318Z,16.60
2023-05-14T05:35:30.121Z,16.70
2023-05-14T05:37:31.930Z,16.80
2023-05-14T05:39:35.253Z,17.00
2023-05-14T05:41:37.249Z,17.20
2023-05-14T05:43:38.989Z,17.50
2023-05-14T05:45:42.137Z,17.60
2023-05-14T05:47:44.144Z,17.80
2023-05-14T05:49:45.897Z,17.80
2023-05-14T05:51:47.632Z,17.80
2023-05-14T05:53:49.395Z,17.90
2023-05-14T05:55:51.745Z,18.00
2023-05-14T05:57:53.774Z,18.10
2023-05-14T05:59:55.629Z,18.00
2023-05-14T06:01:59.795Z,18.10
2023-05-14T06:04:02.066Z,18.20
2023-05-14T06:06:03.918Z,18.10
2023-05-14T06:08:05.922Z,18.30
2023-05-14T06:10:07.930Z,18.50
2023-05-14T06:12:09.792Z,18.50
2023-05-14T06:14:11.634Z,18.60
2023-05-14T06:16:13.428Z,18.70
2023-05-14T06:18:15.351Z,18.80
2023-05-14T06:20:17.192Z,18.90
2023-05-14T06:22:19.155Z,19.00
2023-05-14T06:24:21.259Z,19.20
2023-05-14T06:26:23.489Z,19.40
2023-05-14T06:28:25.279Z,19.30
2023-05-14T06:30:27.117Z,19.50
2023-05-14T06:32:28.952Z,19.60
2023-05-14T06:34:31.002Z,19.70
2023-05-14T06:36:32.765Z,19.60
2023-05-14T06:38:34.538Z,19.70
2023-05-14T06:40:36.270Z,19.70
2023-05-14T06:42:38.172Z,19.80
2023-05-14T06:44:39.869Z,19.80
2023-05-14T06:46:41.605Z,19.90
2023-05-14T06:48:43.436Z,20.10
2023-05-14T06:50:45.757Z,20.30
2023-05-14T06:52:47.557Z,20.30
2023-05-14T06:54:49.310Z,20.30
2023-05-14T06:56:50.978Z,20.40
2023-05-14T06:58:52.703Z,20.30
2023-05-14T07:00:54.473Z,20.50
2023-05-14T07:02:56.305Z,20.70
2023-05-14T07:04:58.078Z,20.60
2023-05-14T07:06:59.950Z,20.70
2023-05-14T07:09:02.053Z,20.80
2023-05-14T07:11:03.872Z,20.80
2023-05-14T07:13:05.744Z,20.60
2023-05-14T07:15:07.996Z,20.60
2023-05-14T07:17:09.769Z,20.80
2023-05-14T07:19:11.722Z,21.10
2023-05-14T07:21:13.721Z,21.10
2023-05-14T07:23:16.242Z,21.10
2023-05-14T07:25:19.182Z,21.10
2023-05-14T07:27:21.030Z,21.10
2023-05-14T07:29:22.956Z,21.20
2023-05-14T07:31:24.799Z,21.20
2023-05-14T07:33:26.653Z,21.20
2023-05-14T07:35:28.390Z,21.30
2023-05-14T07:37:30.239Z,21.10
2023-05-14T07:39:32.019Z,21.20
2023-05-14T07:41:33.824Z,21.20
2023-05-14T07:43:35.733Z,21.30
2023-05-14T07:45:37.964Z,21.30
2023-05-14T07:47:40.758Z,21.30
2023-05-14T07:49:42.713Z,21.20
2023-05-14T07:51:44.408Z,21.40
2023-05-14T07:53:46.146Z,21.60
2023-05-14T07:55:48.667Z,21.90
2023-05-14T07:57:50.500Z,21.60
2023-05-14T07:59:52.252Z,21.80
2023-05-14T08:01:54.077Z,21.80
2023-05-14T08:03:55.881Z,22.00
2023-05-14T08:05:57.739Z,21.60
2023-05-14T08:07:59.503Z,21.80
2023-05-14T08:10:01.381Z,22.00
2023-05-14T08:12:03.280Z,22.10
2023-05-14T08:14:05.113Z,22.10
2023-05-14T08:16:07.197Z,22.00
2023-05-14T08:18:08.978Z,22.00
2023-05-14T08:20:12.072Z,22.10
2023-05-14T08:22:13.943Z,22.00
2023-05-14T08:24:15.709Z,22.10
2023-05-14T08:26:17.981Z,22.20
2023-05-14T08:28:19.874Z,22.50
2023-05-14T08:30:23.059Z,22.30
2023-05-14T08:32:25.255Z,22.30
2023-05-14T08:34:28.026Z,22.60
2023-05-14T08:36:29.790Z,22.50
2023-05-14T08:38:31.599Z,22.60
2023-05-14T08:40:33.354Z,22.80
2023-05-14T08:42:35.228Z,22.60
2023-05-14T08:44:39.354Z,23.00
2023-05-14T08:46:41.402Z,22.90
2023-05-14T08:48:43.432Z,22.60
2023-05-14T08:50:45.348Z,22.50
2023-05-14T08:52:47.215Z,23.00
2023-05-14T08:54:50.704Z,23.30
2023-05-14T08:56:53.242Z,23.30
2023-05-14T08:58:55.113Z,23.10
2023-05-14T09:00:56.927Z,22.30
2023-05-14T09:02:59.078Z,22.50
2023-05-14T09:19:34.900Z,22.50
2023-05-14T09:21:37.270Z,23.20
2023-05-14T09:23:44.102Z,23.40
2023-05-14T09:25:48.845Z,23.90
2023-05-14T09:27:51.279Z,24.60
2023-05-14T09:29:53.192Z,24.50
2023-05-14T09:31:56.693Z,24.20
2023-05-14T09:33:59.787Z,23.00
2023-05-14T09:36:02.887Z,22.80
2023-05-14T09:38:04.796Z,22.80
2023-05-14T09:40:09.208Z,22.70
2023-05-14T09:42:11.203Z,22.70
2023-05-14T09:44:13.170Z,22.50
2023-05-14T09:46:15.775Z,22.60
2023-05-14T09:48:17.732Z,22.50
2023-05-14T09:50:19.770Z,22.50
2023-05-14T09:52:24.426Z,22.50
2023-05-14T09:54:27.582Z,22.50
2023-05-14T09:56:29.589Z,22.50
2023-05-14T09:58:31.349Z,22.60
2023-05-14T10:00:34.230Z,22.60
2023-05-14T10:02:38.289Z,22.60
2023-05-14T10:04:41.448Z,22.70
2023-05-14T10:06:47.581Z,23.60
2023-05-14T10:08:53.963Z,24.30
2023-05-14T10:10:57.745Z,24.10
2023-05-14T10:13:04.831Z,23.50
2023-05-14T10:15:29.947Z,23.40
2023-05-14T10:17:34.492Z,23.80
2023-05-14T10:19:40.406Z,24.40
2023-05-14T10:21:45.907Z,24.40
2023-05-14T10:23:49.228Z,23.60
2023-05-14T10:25:51.636Z,23.90
2023-05-14T10:27:54.524Z,23.30
2023-05-14T10:29:56.826Z,23.30
2023-05-14T10:31:58.744Z,23.50
2023-05-14T10:34:00.781Z,23.70
2023-05-14T10:36:07.589Z,23.00
2023-05-14T10:38:09.577Z,23.10
2023-05-14T10:40:12.108Z,23.30
2023-05-14T10:42:27.276Z,23.40
2023-05-14T10:44:29.706Z,23.50
2023-05-14T10:46:32.080Z,22.80
2023-05-14T10:48:34.793Z,22.40
2023-05-14T10:50:36.801Z,22.60
2023-05-14T10:52:40.830Z,22.20
2023-05-14T10:54:53.917Z,22.00
2023-05-14T10:56:59.677Z,21.90
2023-05-14T10:59:02.527Z,22.30
2023-05-14T11:01:08.916Z,22.50
2023-05-14T11:03:13.283Z,22.30
2023-05-14T11:05:17.728Z,22.60
2023-05-14T11:07:24.747Z,22.30
2023-05-14T11:09:26.894Z,22.10
2023-05-14T11:11:29.322Z,22.00
2023-05-14T11:13:31.415Z,22.20
2023-05-14T11:15:33.550Z,22.50
2023-05-14T11:17:36.945Z,22.50
2023-05-14T11:19:38.829Z,22.70
2023-05-14T11:21:41.093Z,22.10
2023-05-14T11:23:46.265Z,22.00
2023-05-14T11:25:48.360Z,22.00
2023-05-14T11:27:50.704Z,22.10
2023-05-14T11:29:52.980Z,22.40
2023-05-14T11:31:54.967Z,22.70
2023-05-14T11:33:56.939Z,22.80
2023-05-14T11:35:58.790Z,22.70
2023-05-14T11:38:00.713Z,22.80
2023-05-14T11:40:02.654Z,23.10
2023-05-14T11:42:12.354Z,23.00
2023-05-14T11:44:14.246Z,22.70
2023-05-14T11:46:19.482Z,22.90
2023-05-14T11:48:22.756Z,22.60
2023-05-14T11:50:24.965Z,22.40
2023-05-14T11:52:27.153Z,22.60
2023-05-14T11:54:29.440Z,22.70
2023-05-14T11:56:31.246Z,22.80
2023-05-14T11:58:33.891Z,22.60
2023-05-14T12:00:36.432Z,22.40
2023-05-14T12:02:38.597Z,22.20
2023-05-14T12:04:42.270Z,22.10
2023-05-14T12:06:44.237Z,22.00
2023-05-14T12:08:47.826Z,22.00
2023-05-14T12:10:49.753Z,22.10
2023-05-14T12:12:51.473Z,22.10
2023-05-14T12:14:53.458Z,21.80
2023-05-14T12:16:55.344Z,21.20
2023-05-14T12:19:01.398Z,21.20
2023-05-14T12:21:06.033Z,21.10
2023-05-14T12:23:11.382Z,21.30
2023-05-14T12:25:14.360Z,21.50
2023-05-14T12:27:16.287Z,21.60
2023-05-14T12:29:18.265Z,21.70
2023-05-14T12:31:27.548Z,21.60
2023-05-14T12:33:29.445Z,21.50
2023-05-14T12:35:31.360Z,21.80
2023-05-14T12:37:34.093Z,21.90
2023-05-14T12:39:36.050Z,21.90
2023-05-14T12:41:37.898Z,22.20
2023-05-14T12:43:44.804Z,22.20
2023-05-14T12:45:46.729Z,22.00
2023-05-14T12:47:48.482Z,22.20
2023-05-14T12:49:50.903Z,22.60
2023-05-14T12:52:03.258Z,22.60
2023-05-14T12:54:16.028Z,22.50
2023-05-14T12:56:17.994Z,22.20
2023-05-14T12:58:19.735Z,22.30
2023-05-14T13:00:21.752Z,22.30
2023-05-14T13:02:23.653Z,22.60
2023-05-14T13:04:25.701Z,22.50
2023-05-14T13:06:27.576Z,22.60
2023-05-14T13:08:29.714Z,22.90
2023-05-14T13:10:31.572Z,23.10
2023-05-14T13:12:33.603Z,23.10
2023-05-14T13:14:36.463Z,23.10
2023-05-14T13:16:38.357Z,23.00
2023-05-14T13:18:40.150Z,22.80
2023-05-14T13:20:43.301Z,23.00
2023-05-14T13:22:45.376Z,23.00
2023-05-14T13:24:47.125Z,23.10
2023-05-14T13:26:49.041Z,23.20
2023-05-14T13:28:51.104Z,23.30
2023-05-14T13:31:08.521Z,23.40
2023-05-14T13:33:10.508Z,23.60
2023-05-14T13:35:12.638Z,23.70
2023-05-14T13:37:14.592Z,24.40
2023-05-14T13:39:16.390Z,25.10
2023-05-14T13:41:18.333Z,25.80
2023-05-14T13:43:20.531Z,26.00
2023-05-14T13:45:22.661Z,25.20
2023-05-14T13:47:25.715Z,24.80
2023-05-14T13:49:27.613Z,24.60
2023-05-14T13:51:29.540Z,25.00
2023-05-14T13:53:31.481Z,25.20
2023-05-14T13:55:33.320Z,24.60
2023-05-14T13:57:35.432Z,25.20
2023-05-14T13:59:37.461Z,25.80
2023-05-14T14:01:39.410Z,25.80
2023-05-14T14:03:41.318Z,26.10
2023-05-14T14:05:43.240Z,26.10
2023-05-14T14:07:45.783Z,26.10
2023-05-14T14:09:50.024Z,27.00
2023-05-14T14:11:52.167Z,27.60
2023-05-14T14:13:54.473Z,28.50
2023-05-14T14:15:56.911Z,30.10
2023-05-14T14:17:58.899Z,30.40
2023-05-14T14:20:00.752Z,30.90
2023-05-14T14:22:02.672Z,28.30
2023-05-14T14:24:04.786Z,27.70
2023-05-14T14:26:06.664Z,28.10
2023-05-14T14:28:08.548Z,28.10
2023-05-14T14:30:15.661Z,29.70
2023-05-14T14:32:17.561Z,30.60
2023-05-14T14:34:19.431Z,29.10
2023-05-14T14:36:21.344Z,27.10
2023-05-14T14:38:23.308Z,27.10
2023-05-14T14:40:26.425Z,26.70
2023-05-14T14:42:28.316Z,26.50
2023-05-14T14:44:30.213Z,25.80
2023-05-14T14:46:33.159Z,26.10
2023-05-14T14:48:39.280Z,26.80
2023-05-14T14:50:41.157Z,28.90
2023-05-14T14:52:45.773Z,29.40
2023-05-14T14:54:47.944Z,28.80
2023-05-14T14:56:52.410Z,28.60
2023-05-14T14:58:54.289Z,28.70
2023-05-14T15:00:57.375Z,29.30
2023-05-14T15:02:59.313Z,30.10
2023-05-14T15:05:01.327Z,27.40
2023-05-14T15:07:03.205Z,26.10
2023-05-14T15:09:05.102Z,26.30
2023-05-14T15:11:08.063Z,27.30
2023-05-14T15:13:10.354Z,27.20
2023-05-14T15:15:12.205Z,27.20
2023-05-14T15:17:13.974Z,26.50
2023-05-14T15:19:15.950Z,26.90
2023-05-14T15:21:17.935Z,27.00
2023-05-14T15:23:19.893Z,26.50
2023-05-14T15:25:23.106Z,26.50
2023-05-14T15:27:25.047Z,26.90
2023-05-14T15:29:26.924Z,26.60
2023-05-14T15:31:28.942Z,26.10
2023-05-14T15:33:30.886Z,26.90
2023-05-14T15:35:32.757Z,27.00
2023-05-14T15:37:41.088Z,26.50
2023-05-14T15:39:42.929Z,26.30
2023-05-14T15:41:45.544Z,26.60
2023-05-14T15:43:47.413Z,26.60
2023-05-14T15:45:49.310Z,26.90
2023-05-14T15:47:51.297Z,27.50
2023-05-14T15:49:53.354Z,26.90
2023-05-14T15:51:55.469Z,26.30
2023-05-14T15:53:57.393Z,26.20
2023-05-14T15:55:59.335Z,26.60
2023-05-14T15:58:02.267Z,26.90
2023-05-14T16:00:13.586Z,26.20
2023-05-14T16:02:15.860Z,26.40
2023-05-14T16:04:17.726Z,26.50
2023-05-14T16:06:19.732Z,27.60
2023-05-14T16:08:21.589Z,25.80
2023-05-14T16:10:23.689Z,25.80
2023-05-14T16:12:26.242Z,26.20
2023-05-14T16:14:28.115Z,26.50
2023-05-14T16:16:30.658Z,27.00
2023-05-14T16:18:33.601Z,27.10
2023-05-14T16:20:35.454Z,25.80
2023-05-14T16:22:37.555Z,25.30
2023-05-14T16:24:39.487Z,24.90
2023-05-14T16:26:41.370Z,24.70
2023-05-14T16:28:43.257Z,24.30
2023-05-14T16:30:45.195Z,23.40
2023-05-14T16:32:49.536Z,22.90
2023-05-14T16:34:51.795Z,23.10
2023-05-14T16:36:53.702Z,23.60
2023-05-14T16:39:06.728Z,23.40
2023-05-14T16:41:12.428Z,23.60
2023-05-14T16:43:14.341Z,23.10
2023-05-14T16:45:16.206Z,22.40
2023-05-14T16:47:18.046Z,22.10
2023-05-14T16:49:22.469Z,22.00
2023-05-14T16:51:24.397Z,22.00
2023-05-14T16:53:26.546Z,21.90
2023-05-14T16:55:28.413Z,22.00
2023-05-14T16:57:30.286Z,22.20
2023-05-14T16:59:32.008Z,22.00
2023-05-14T17:01:34.108Z,21.60
2023-05-14T17:03:36.016Z,21.40
2023-05-14T17:05:37.899Z,21.30
2023-05-14T17:07:39.677Z,21.40
2023-05-14T17:09:41.724Z,21.20
2023-05-14T17:11:43.705Z,21.20
2023-05-14T17:13:45.495Z,21.00
2023-05-14T17:15:47.388Z,20.90
2023-05-14T17:17:49.354Z,20.60
2023-05-14T17:19:51.304Z,20.40
2023-05-14T17:21:53.354Z,20.30
2023-05-14T17:23:55.136Z,20.10
2023-05-14T17:25:57.057Z,19.90
2023-05-14T17:27:58.878Z,19.70
2023-05-14T17:30:01.365Z,19.40
2023-05-14T17:32:03.734Z,19.40
2023-05-14T17:34:05.604Z,19.40
2023-05-14T17:36:07.680Z,19.50
2023-05-14T17:38:09.830Z,19.40
2023-05-14T17:40:12.187Z,19.30
2023-05-14T17:42:14.053Z,19.50
2023-05-14T17:44:15.941Z,19.70
2023-05-14T17:46:18.139Z,19.60
2023-05-14T17:48:20.032Z,19.50
2023-05-14T17:50:21.935Z,19.60
2023-05-14T17:52:23.672Z,19.70
2023-05-14T17:54:25.723Z,19.70
2023-05-14T17:56:27.583Z,19.60
2023-05-14T17:58:29.758Z,19.60
2023-05-14T18:00:31.603Z,19.80
2023-05-14T18:02:33.593Z,19.80
2023-05-14T18:04:35.605Z,19.70
2023-05-14T18:06:37.728Z,19.70
2023-05-14T18:08:39.710Z,19.70
2023-05-14T18:10:41.589Z,19.60
2023-05-14T18:12:43.505Z,19.70
2023-05-14T18:14:45.813Z,19.70
2023-05-14T18:16:47.845Z,19.80
2023-05-14T18:18:50.007Z,19.70
2023-05-14T18:20:52.707Z,19.60
2023-05-14T18:22:54.631Z,19.60
2023-05-14T18:24:56.510Z,19.40
2023-05-14T18:26:59.295Z,19.30
2023-05-14T18:29:01.172Z,19.30
2023-05-14T18:31:04.355Z,19.10
2023-05-14T18:33:06.550Z,19.20
2023-05-14T18:35:08.967Z,19.10
2023-05-14T18:37:10.915Z,18.90
2023-05-14T18:39:12.861Z,18.70
2023-05-14T18:41:14.623Z,18.70
2023-05-14T18:43:18.476Z,18.50
2023-05-14T18:45:21.672Z,18.20
2023-05-14T18:47:23.794Z,18.00
2023-05-14T18:49:25.926Z,17.90
2023-05-14T18:51:27.711Z,17.80
2023-05-14T18:53:29.761Z,17.60
2023-05-14T18:55:31.554Z,17.30
2023-05-14T18:57:33.856Z,17.00
2023-05-14T18:59:35.721Z,16.70
2023-05-14T19:01:37.659Z,16.40
2023-05-14T19:03:41.717Z,16.10
2023-05-14T19:05:43.674Z,15.90
2023-05-14T19:07:48.085Z,15.70
2023-05-14T19:09:50.073Z,15.70
2023-05-14T19:11:51.908Z,15.50
2023-05-14T19:13:53.827Z,15.30
2023-05-14T19:15:56.106Z,15.40
2023-05-14T19:17:58.069Z,15.50
2023-05-14T19:20:00.047Z,15.60
2023-05-14T19:22:01.997Z,15.80
2023-05-14T19:24:04.282Z,16.00
2023-05-14T19:26:07.249Z,16.00
2023-05-14T19:28:09.213Z,15.80
2023-05-14T19:30:11.695Z,15.90
2023-05-14T19:32:13.541Z,15.80
2023-05-14T19:34:15.432Z,15.80
2023-05-14T19:36:17.302Z,15.90
2023-05-14T19:38:19.827Z,15.90
2023-05-14T19:40:21.799Z,15.90
2023-05-14T19:42:24.885Z,15.90
2023-05-14T19:44:26.939Z,15.70
2023-05-14T19:46:29.051Z,15.70
2023-05-14T19:48:31.404Z,15.60
2023-05-14T19:50:33.616Z,15.70
2023-05-14T19:52:35.542Z,15.50
2023-05-14T19:54:37.405Z,15.50
2023-05-14T19:56:39.290Z,15.40
2023-05-14T19:58:41.239Z,15.20
2023-05-14T20:00:43.294Z,15.10
2023-05-14T20:02:45.639Z,15.10
2023-05-14T20:04:47.756Z,15.20
2023-05-14T20:06:49.571Z,15.10
2023-05-14T20:08:51.644Z,15.10
2023-05-14T20:10:53.544Z,15.10
2023-05-14T20:12:55.461Z,15.00
2023-05-14T20:14:57.359Z,14.90
2023-05-14T20:17:00.051Z,14.70
2023-05-14T20:19:02.318Z,14.60
2023-05-14T20:21:04.363Z,14.50
2023-05-14T20:23:06.564Z,14.50
2023-05-14T20:25:09.006Z,14.60
2023-05-14T20:27:11.920Z,14.60
2023-05-14T20:29:14.551Z,14.60
2023-05-14T20:31:16.546Z,14.50
2023-05-14T20:33:18.436Z,14.40
2023-05-14T20:35:20.385Z,14.30
2023-05-14T20:37:24.072Z,14.40
2023-05-14T20:39:26.062Z,14.30
2023-05-14T20:41:27.940Z,14.20
2023-05-14T20:43:29.906Z,14.00
2023-05-14T20:45:31.970Z,13.80
2023-05-14T20:47:34.339Z,13.70
2023-05-14T20:49:36.264Z,13.70
2023-05-14T20:51:38.218Z,13.60
2023-05-14T20:53:40.225Z,13.50
2023-05-14T20:55:42.290Z,13.50
2023-05-14T20:57:44.236Z,13.50
2023-05-14T20:59:46.614Z,13.40
2023-05-14T21:01:48.530Z,13.40
2023-05-14T21:03:50.604Z,13.40
2023-05-14T21:05:52.905Z,13.30
2023-05-14T21:07:54.818Z,13.30
2023-05-14T21:09:56.656Z,13.30
2023-05-14T21:11:58.549Z,13.30
2023-05-14T21:14:00.962Z,13.20
2023-05-14T21:16:03.265Z,13.20
2023-05-14T21:18:05.504Z,13.20
2023-05-14T21:20:10.390Z,13.20
2023-05-14T21:22:13.444Z,13.10
2023-05-14T21:24:16.877Z,12.90
2023-05-14T21:26:21.696Z,12.90
2023-05-14T21:28:23.619Z,12.80
2023-05-14T21:30:25.589Z,12.60
2023-05-14T21:32:27.737Z,12.60
2023-05-14T21:34:31.256Z,12.50
2023-05-14T21:36:34.060Z,12.40
2023-05-14T21:38:36.409Z,12.40
2023-05-14T21:40:38.293Z,12.70
2023-05-14T21:42:40.879Z,12.50
2023-05-14T21:44:42.775Z,12.60
2023-05-14T21:46:44.713Z,12.60
2023-05-14T21:48:46.773Z,12.60
2023-05-14T21:50:49.009Z,12.70
2023-05-14T21:52:51.347Z,12.70
2023-05-14T21:54:53.333Z,12.90
2023-05-14T21:56:55.260Z,12.70
2023-05-14T21:58:57.287Z,12.70
2023-05-14T22:00:59.142Z,12.60
2023-05-14T22:03:01.164Z,12.60
2023-05-14T22:05:03.578Z,12.60
2023-05-14T22:07:05.535Z,12.50
2023-05-14T22:09:07.414Z,12.50
2023-05-14T22:11:09.296Z,12.40
2023-05-14T22:13:11.234Z,12.40
2023-05-14T22:15:13.427Z,12.30
2023-05-14T22:17:15.348Z,12.20
2023-05-14T22:19:17.308Z,12.30
2023-05-14T22:21:19.178Z,12.30
2023-05-14T22:23:21.135Z,12.30
2023-05-14T22:25:23.313Z,12.30
2023-05-14T22:27:25.271Z,12.20
2023-05-14T22:29:27.143Z,12.10
2023-05-14T22:31:31.141Z,12.20
2023-05-14T22:33:33.309Z,12.30
2023-05-14T22:35:35.057Z,12.40
2023-05-14T22:37:37.205Z,12.30
2023-05-14T22:39:39.730Z,12.20
2023-05-14T22:41:41.471Z,12.30
2023-05-14T22:43:43.663Z,12.30
2023-05-14T22:45:45.624Z,12.10
2023-05-14T22:47:47.506Z,11.90
2023-05-14T22:49:49.425Z,12.00
2023-05-14T22:51:54.393Z,12.10
2023-05-14T22:53:56.241Z,12.10
2023-05-14T22:55:58.104Z,12.10
2023-05-14T22:58:00.081Z,12.00
2023-05-14T23:00:02.117Z,12.00
2023-05-14T23:02:04.185Z,12.00
2023-05-14T23:04:06.121Z,11.90
2023-05-14T23:06:08.030Z,11.90
2023-05-14T23:08:10.859Z,11.80
2023-05-14T23:10:12.756Z,11.70
2023-05-14T23:12:14.670Z,11.70
2023-05-14T23:14:18.028Z,11.70
2023-05-14T23:16:20.644Z,11.70
2023-05-14T23:18:24.054Z,11.60
2023-05-14T23:20:27.092Z,11.70
2023-05-14T23:22:28.920Z,11.60
2023-05-14T23:24:30.844Z,11.70
2023-05-14T23:26:33.088Z,11.60
2023-05-14T23:28:34.956Z,11.50
2023-05-14T23:30:36.789Z,11.60
2023-05-14T23:32:38.733Z,11.60
2023-05-14T23:34:40.687Z,11.70
2023-05-14T23:36:42.723Z,11.60
2023-05-14T23:38:44.593Z,11.40
2023-05-14T23:40:46.456Z,11.40
2023-05-14T23:42:48.337Z,11.40
2023-05-14T23:44:50.288Z,11.50
2023-05-14T23:46:52.136Z,11.50
2023-05-14T23:48:57.020Z,11.50
2023-05-14T23:50:58.982Z,11.50
2023-05-14T23:53:00.836Z,11.40
2023-05-14T23:55:04.367Z,11.50
2023-05-14T23:57:06.498Z,11.30
2023-05-14T23:59:08.270Z,11.30
